Celilo, Oregon
Current Conditions -  °F | °C
As of 12:53 PM on Monday 22 Dec 2014 (Local Time) from KDLS Reporting Station
Clear Clear  
Wind Chill: 56°   Ceiling: Unl
Heat Index: 56°   Visibility: 10mi
Dew Point: 39°   Wind: 12mph
Humidity: 53%   Direction: 340°NNW
Pressure: 30.3"   Gusts: NA
Location:  45.5517°N, 121.219°W
Report Text: KDLS 222053Z AUTO 34010KT 10SM CLR 13/04 A3030 RMK AO2 SLP262 T01330039 58013
Loading
Personal Weather Stations






























Interactive Weather Map New forecast layout! Learn more

10-Day Weather Forecast

Advertisements
Track Severe Weather on mobile